Largo — PFNC — position and weather

sailwx.info

Track history (hours):
 
Tides and Currents Weather Stations Pressure Air Temp Water Temp Dewpoint Dewpoint Depression Visibility Wind Speed Wind Dir Waves Ship Positions

Largo

Last reported at 2016-Jul-28 03:11 UTC. Time now 2016-Jul-28 14:35 UTC.
Position N 38°37' E 000°37'.

Length 91 m; draft 4.7 m.

Type: Cargo ship. MMSI: 245645000.

Date/timePositionNaut miles runAvg speedWind from/ knotsBaromVisibWave heightAir tempDewpointWater temp
2016-Jul-28 03:11N 38°37' E 000°37'811.4
2016-Jul-28 02:30N 38°29' E 000°40'1111.4
2016-Jul-28 01:33N 38°19' E 000°43'1211.5
2016-Jul-28 00:33N 38°07' E 000°47'1211.5
2016-Jul-27 23:33N 37°56' E 000°51'1211.5
2016-Jul-27 22:29N 37°44' E 000°55'1111.4
2016-Jul-27 21:32N 37°34' E 000°58'1111.3
2016-Jul-27 20:33N 37°23' E 001°02'1211.5
2016-Jul-27 19:30N 37°12' E 001°06'1111.3
2016-Jul-27 18:33N 37°01' E 001°09'1111.4
2016-Jul-27 17:33N 36°50' E 001°13'1211.6
2016-Jul-27 16:33N 36°39' E 001°16'8 0.2
2016-Jul-26 05:30N 36°32' E 001°19'0 0.0
2016-Jul-26 04:30N 36°32' E 001°19'0 0.0
2016-Jul-26 03:30N 36°32' E 001°19'0 0.0
2016-Jul-26 02:06N 36°32' E 001°19'0 0.0
2016-Jul-26 00:30N 36°32' E 001°19'0 0.0
2016-Jul-25 23:30N 36°32' E 001°19'0 0.0
2016-Jul-25 22:30N 36°32' E 001°19'0 0.0
2016-Jul-25 21:30N 36°32' E 001°19'0 0.0
2016-Jul-25 20:07N 36°32' E 001°19'0 0.0
2016-Jul-25 19:06N 36°32' E 001°19'0 0.0
2016-Jul-25 08:31N 36°32' E 001°19'0 0.0
2016-Jul-25 07:31N 36°32' E 001°19'4 0.1
2016-Jul-23 06:29N 36°34' E 001°15'41 8.2
2016-Jul-23 01:33N 37°06' E 000°44'9 8.6
2016-Jul-23 00:33N 37°12' E 000°37'9 8.6
2016-Jul-22 23:29N 37°20' E 000°30'9 8.6
2016-Jul-22 22:25N 37°27' E 000°23'7 8.6
2016-Jul-22 21:33N 37°33' E 000°17'8 8.3
2016-Jul-22 20:32N 37°39' E 000°11'48 1.2
2016-Jul-21 04:08N 38°18' W 000°25'810.1
2016-Jul-21 03:20N 38°16' W 000°16'8 9.9
2016-Jul-21 02:33N 38°13' W 000°06'1010.2
2016-Jul-21 01:33N 38°10' E 000°06'1010.3
2016-Jul-21 00:32N 38°07' E 000°19'1010.3
2016-Jul-20 23:31N 38°04' E 000°31'1010.2
2016-Jul-20 22:32N 38°01' E 000°43'1410.1
2016-Jul-20 21:12N 37°56' E 000°60'810.3
2016-Jul-20 20:25N 37°54' E 001°09'1910.1
2016-Jul-20 18:32N 37°48' E 001°32'1010.1
2016-Jul-20 17:32N 37°45' E 001°44'1210.3
2016-Jul-20 16:21N 37°41' E 001°59'810.2
2016-Jul-20 15:33N 37°39' E 002°09'1010.2
2016-Jul-20 14:32N 37°36' E 002°21'1010.2
2016-Jul-20 13:33N 37°33' E 002°34'1010.3
2016-Jul-20 12:33N 37°29' E 002°46'1010.3
2016-Jul-20 11:34N 37°26' E 002°58'1110.6
2016-Jul-20 10:33N 37°23' E 003°11'1010.3
2016-Jul-20 09:33N 37°20' E 003°23'1110.3
2016-Jul-20 08:32N 37°17' E 003°36'10 9.9
2016-Jul-20 07:33N 37°14' E 003°48'1010.2
2016-Jul-20 06:33N 37°11' E 003°60'1010.2
2016-Jul-20 05:33N 37°08' E 004°12'1010.2
2016-Jul-20 04:33N 37°04' E 004°24'1010.2
2016-Jul-20 03:34N 37°01' E 004°36'1110.5
2016-Jul-20 02:33N 36°57' E 004°49'1110.9
2016-Jul-20 01:33N 36°52' E 005°01'11 0.5
2016-Jul-19 04:10N 36°44' E 005°09'4 5.8
2016-Jul-19 03:34N 36°47' E 005°08'8 8.4
2016-Jul-19 02:33N 36°52' E 004°60'32 8.1
2016-Jul-18 22:33N 37°14' E 004°29'8 8.1
2016-Jul-18 21:34N 37°19' E 004°21'8 8.0
2016-Jul-18 20:33N 37°24' E 004°14'8 7.9
2016-Jul-18 19:33N 37°30' E 004°06'8 8.1
2016-Jul-18 18:33N 37°35' E 003°58'16 8.1
2016-Jul-18 16:33N 37°46' E 003°43'9 7.9
2016-Jul-18 15:23N 37°52' E 003°34'55 7.9
2016-Jul-18 08:30N 38°28' E 002°42'15 7.9
2016-Jul-18 06:32N 38°38' E 002°27'8 8.0
2016-Jul-18 05:33N 38°43' E 002°19'8 8.0
2016-Jul-18 04:33N 38°48' E 002°12'8 8.0
2016-Jul-18 03:33N 38°53' E 002°04'  
Track history (hours):
 
Tides and Currents Weather Stations Pressure Air Temp Water Temp Dewpoint Dewpoint Depression Visibility Wind Speed Wind Dir Waves Ship Positions

Largo

Last reported at 2016-Jul-28 03:11 UTC. Time now 2016-Jul-28 14:35 UTC.
Position N 38°37' E 000°37'.

Length 91 m; draft 4.7 m.

Type: Cargo ship. MMSI: 245645000.

Date/timePositionNaut miles runAvg speedWind from/ knotsBaromVisibWave heightAir tempDewpointWater temp
2016-Jul-28 03:11N 38°37' E 000°37'811.4
2016-Jul-28 02:30N 38°29' E 000°40'1111.4
2016-Jul-28 01:33N 38°19' E 000°43'1211.5
2016-Jul-28 00:33N 38°07' E 000°47'1211.5
2016-Jul-27 23:33N 37°56' E 000°51'1211.5
2016-Jul-27 22:29N 37°44' E 000°55'1111.4
2016-Jul-27 21:32N 37°34' E 000°58'1111.3
2016-Jul-27 20:33N 37°23' E 001°02'1211.5
2016-Jul-27 19:30N 37°12' E 001°06'1111.3
2016-Jul-27 18:33N 37°01' E 001°09'1111.4
2016-Jul-27 17:33N 36°50' E 001°13'1211.6
2016-Jul-27 16:33N 36°39' E 001°16'8 0.2
2016-Jul-26 05:30N 36°32' E 001°19'0 0.0
2016-Jul-26 04:30N 36°32' E 001°19'0 0.0
2016-Jul-26 03:30N 36°32' E 001°19'0 0.0
2016-Jul-26 02:06N 36°32' E 001°19'0 0.0
2016-Jul-26 00:30N 36°32' E 001°19'0 0.0
2016-Jul-25 23:30N 36°32' E 001°19'0 0.0
2016-Jul-25 22:30N 36°32' E 001°19'0 0.0
2016-Jul-25 21:30N 36°32' E 001°19'0 0.0
2016-Jul-25 20:07N 36°32' E 001°19'0 0.0
2016-Jul-25 19:06N 36°32' E 001°19'0 0.0
2016-Jul-25 08:31N 36°32' E 001°19'0 0.0
2016-Jul-25 07:31N 36°32' E 001°19'4 0.1
2016-Jul-23 06:29N 36°34' E 001°15'41 8.2
2016-Jul-23 01:33N 37°06' E 000°44'9 8.6
2016-Jul-23 00:33N 37°12' E 000°37'9 8.6
2016-Jul-22 23:29N 37°20' E 000°30'9 8.6
2016-Jul-22 22:25N 37°27' E 000°23'7 8.6
2016-Jul-22 21:33N 37°33' E 000°17'8 8.3
2016-Jul-22 20:32N 37°39' E 000°11'48 1.2
2016-Jul-21 04:08N 38°18' W 000°25'810.1
2016-Jul-21 03:20N 38°16' W 000°16'8 9.9
2016-Jul-21 02:33N 38°13' W 000°06'1010.2
2016-Jul-21 01:33N 38°10' E 000°06'1010.3
2016-Jul-21 00:32N 38°07' E 000°19'1010.3
2016-Jul-20 23:31N 38°04' E 000°31'1010.2
2016-Jul-20 22:32N 38°01' E 000°43'1410.1
2016-Jul-20 21:12N 37°56' E 000°60'810.3
2016-Jul-20 20:25N 37°54' E 001°09'1910.1
2016-Jul-20 18:32N 37°48' E 001°32'1010.1
2016-Jul-20 17:32N 37°45' E 001°44'1210.3
2016-Jul-20 16:21N 37°41' E 001°59'810.2
2016-Jul-20 15:33N 37°39' E 002°09'1010.2
2016-Jul-20 14:32N 37°36' E 002°21'1010.2
2016-Jul-20 13:33N 37°33' E 002°34'1010.3
2016-Jul-20 12:33N 37°29' E 002°46'1010.3
2016-Jul-20 11:34N 37°26' E 002°58'1110.6
2016-Jul-20 10:33N 37°23' E 003°11'1010.3
2016-Jul-20 09:33N 37°20' E 003°23'1110.3
2016-Jul-20 08:32N 37°17' E 003°36'10 9.9
2016-Jul-20 07:33N 37°14' E 003°48'1010.2
2016-Jul-20 06:33N 37°11' E 003°60'1010.2
2016-Jul-20 05:33N 37°08' E 004°12'1010.2
2016-Jul-20 04:33N 37°04' E 004°24'1010.2
2016-Jul-20 03:34N 37°01' E 004°36'1110.5
2016-Jul-20 02:33N 36°57' E 004°49'1110.9
2016-Jul-20 01:33N 36°52' E 005°01'11 0.5
2016-Jul-19 04:10N 36°44' E 005°09'4 5.8
2016-Jul-19 03:34N 36°47' E 005°08'8 8.4
2016-Jul-19 02:33N 36°52' E 004°60'32 8.1
2016-Jul-18 22:33N 37°14' E 004°29'8 8.1
2016-Jul-18 21:34N 37°19' E 004°21'8 8.0
2016-Jul-18 20:33N 37°24' E 004°14'8 7.9
2016-Jul-18 19:33N 37°30' E 004°06'8 8.1
2016-Jul-18 18:33N 37°35' E 003°58'16 8.1
2016-Jul-18 16:33N 37°46' E 003°43'9 7.9
2016-Jul-18 15:23N 37°52' E 003°34'55 7.9
2016-Jul-18 08:30N 38°28' E 002°42'15 7.9
2016-Jul-18 06:32N 38°38' E 002°27'8 8.0
2016-Jul-18 05:33N 38°43' E 002°19'8 8.0
2016-Jul-18 04:33N 38°48' E 002°12'8 8.0
2016-Jul-18 03:33N 38°53' E 002°04'  

Dump ship's entire track history